createdAt,value
2018-08-31T00:01:42.118Z,99.10
2018-08-31T00:05:32.450Z,99.10
2018-08-31T00:10:13.716Z,99.30
2018-08-31T00:12:41.611Z,99.30
2018-08-31T00:15:09.386Z,99.30
2018-08-31T00:17:38.385Z,99.30
2018-08-31T00:20:06.214Z,99.30
2018-08-31T00:22:33.890Z,99.40
2018-08-31T00:25:12.863Z,99.20
2018-08-31T00:27:51.722Z,99.20
2018-08-31T00:30:30.655Z,99.20
2018-08-31T00:33:11.109Z,99.20
2018-08-31T00:36:23.672Z,99.40
2018-08-31T00:39:06.681Z,99.50
2018-08-31T00:43:52.824Z,99.40
2018-08-31T00:46:20.381Z,99.40
2018-08-31T00:48:47.863Z,99.50
2018-08-31T00:51:15.477Z,99.60
2018-08-31T00:53:43.066Z,99.40
2018-08-31T00:56:10.572Z,99.50
2018-08-31T00:58:38.174Z,99.50
2018-08-31T01:01:05.648Z,99.70
2018-08-31T01:03:33.229Z,99.50
2018-08-31T01:06:00.960Z,99.50
2018-08-31T01:08:28.478Z,99.60
2018-08-31T01:10:56.011Z,99.70
2018-08-31T01:13:23.583Z,99.60
2018-08-31T01:15:51.055Z,99.60
2018-08-31T01:18:18.656Z,99.70
2018-08-31T01:20:46.073Z,99.70
2018-08-31T01:23:13.591Z,99.80
2018-08-31T01:25:41.260Z,99.80
2018-08-31T01:28:08.892Z,99.80
2018-08-31T01:30:36.359Z,99.90
2018-08-31T01:33:03.904Z,99.90
2018-08-31T01:35:31.535Z,99.90
2018-08-31T01:37:59.376Z,99.90
2018-08-31T01:40:27.011Z,99.90
2018-08-31T01:42:54.889Z,99.90
2018-08-31T01:45:23.498Z,99.90
2018-08-31T01:47:51.067Z,99.90
2018-08-31T01:50:18.736Z,99.90
2018-08-31T01:52:46.357Z,99.90
2018-08-31T01:55:13.810Z,99.90
2018-08-31T01:57:41.351Z,99.90
2018-08-31T02:00:09.067Z,99.90
2018-08-31T02:02:36.743Z,99.90
2018-08-31T02:05:04.508Z,99.90
2018-08-31T02:07:32.409Z,99.90
2018-08-31T02:10:00.014Z,99.90
2018-08-31T02:12:27.538Z,99.90
2018-08-31T02:14:55.267Z,99.90
2018-08-31T02:17:22.882Z,99.90
2018-08-31T02:19:50.401Z,99.90
2018-08-31T02:22:18.015Z,99.90
2018-08-31T02:24:45.603Z,99.90
2018-08-31T02:27:13.111Z,99.90
2018-08-31T02:29:40.652Z,99.90
2018-08-31T02:32:08.228Z,99.90
2018-08-31T02:34:35.892Z,99.90
2018-08-31T02:37:04.467Z,99.90
2018-08-31T02:39:31.947Z,99.90
2018-08-31T02:42:00.725Z,99.90
2018-08-31T02:44:28.375Z,99.90
2018-08-31T02:46:56.044Z,99.90
2018-08-31T02:49:25.324Z,99.90
2018-08-31T02:51:53.725Z,99.90
2018-08-31T02:54:21.796Z,99.90
2018-08-31T02:56:49.841Z,99.90
2018-08-31T02:59:17.897Z,99.90
2018-08-31T03:01:45.906Z,99.90
2018-08-31T03:04:15.711Z,99.90
2018-08-31T03:06:43.398Z,99.90
2018-08-31T03:09:11.037Z,99.90
2018-08-31T03:11:38.762Z,99.90
2018-08-31T03:14:06.259Z,99.90
2018-08-31T03:16:33.792Z,99.90
2018-08-31T03:19:01.351Z,99.90
2018-08-31T03:21:29.004Z,99.90
2018-08-31T03:23:56.419Z,99.90
2018-08-31T03:26:24.208Z,99.90
2018-08-31T03:28:51.757Z,99.90
2018-08-31T03:31:19.347Z,99.90
2018-08-31T03:33:46.788Z,99.90
2018-08-31T03:36:14.291Z,99.90
2018-08-31T03:38:41.916Z,99.90
2018-08-31T03:41:09.483Z,99.90
2018-08-31T03:43:37.194Z,99.90
2018-08-31T03:46:04.995Z,99.90
2018-08-31T03:48:32.516Z,99.90
2018-08-31T03:51:00.139Z,99.90
2018-08-31T03:53:27.693Z,99.90
2018-08-31T03:55:55.147Z,99.90
2018-08-31T03:58:22.647Z,99.90
2018-08-31T04:00:51.149Z,99.90
2018-08-31T04:03:18.794Z,99.90
2018-08-31T04:05:51.080Z,99.90
2018-08-31T04:08:18.671Z,99.90
2018-08-31T04:10:46.301Z,99.90
2018-08-31T04:13:13.858Z,99.90
2018-08-31T04:15:41.800Z,99.90
2018-08-31T04:18:09.471Z,99.90
2018-08-31T04:20:39.462Z,99.90
2018-08-31T04:23:07.348Z,99.90
2018-08-31T04:25:35.053Z,99.90
2018-08-31T04:28:02.622Z,99.90
2018-08-31T04:30:30.328Z,99.90
2018-08-31T04:32:57.868Z,99.90
2018-08-31T04:35:25.429Z,99.90
2018-08-31T04:37:52.951Z,99.90
2018-08-31T04:40:20.592Z,99.90
2018-08-31T04:42:48.413Z,99.90
2018-08-31T04:45:15.784Z,99.90
2018-08-31T04:47:43.425Z,99.90
2018-08-31T04:50:11.191Z,99.90
2018-08-31T04:52:39.382Z,99.90
2018-08-31T04:55:06.941Z,99.90
2018-08-31T04:57:34.467Z,99.90
2018-08-31T05:00:02.218Z,99.90
2018-08-31T05:02:29.832Z,99.90
2018-08-31T05:04:57.362Z,99.90
2018-08-31T05:07:25.938Z,99.90
2018-08-31T05:09:53.498Z,99.90
2018-08-31T05:12:21.071Z,99.90
2018-08-31T05:14:48.829Z,99.90
2018-08-31T05:17:16.388Z,99.90
2018-08-31T05:19:44.047Z,99.90
2018-08-31T05:22:11.539Z,99.90
2018-08-31T05:24:39.070Z,99.90
2018-08-31T05:27:06.699Z,99.90
2018-08-31T05:29:34.224Z,99.90
2018-08-31T05:32:01.734Z,99.90
2018-08-31T05:34:29.473Z,99.90
2018-08-31T05:36:57.051Z,99.90
2018-08-31T05:39:24.717Z,99.90
2018-08-31T05:41:52.328Z,99.90
2018-08-31T05:44:21.019Z,99.90
2018-08-31T05:46:48.539Z,99.90
2018-08-31T05:49:16.068Z,99.90
2018-08-31T05:51:43.653Z,99.90
2018-08-31T05:54:11.207Z,99.90
2018-08-31T05:56:39.003Z,99.90
2018-08-31T05:59:06.601Z,99.90
2018-08-31T06:01:34.304Z,99.90
2018-08-31T06:04:02.024Z,99.90
2018-08-31T06:06:29.707Z,99.90
2018-08-31T06:08:57.290Z,99.90
2018-08-31T06:11:25.090Z,99.90
2018-08-31T06:13:53.210Z,99.90
2018-08-31T06:16:21.977Z,99.90
2018-08-31T06:18:50.569Z,99.90
2018-08-31T06:21:18.073Z,99.90
2018-08-31T06:23:45.565Z,99.90
2018-08-31T06:26:13.505Z,99.90
2018-08-31T06:28:41.054Z,99.90
2018-08-31T06:31:08.693Z,99.90
2018-08-31T06:33:36.443Z,99.90
2018-08-31T06:36:04.106Z,99.90
2018-08-31T06:38:31.798Z,99.90
2018-08-31T06:40:59.348Z,99.90
2018-08-31T06:43:26.929Z,99.90
2018-08-31T06:45:54.693Z,99.90
2018-08-31T06:48:22.128Z,99.90
2018-08-31T06:50:56.391Z,99.90
2018-08-31T06:53:23.958Z,99.90
2018-08-31T06:55:51.521Z,99.90
2018-08-31T06:58:19.536Z,99.90
2018-08-31T07:00:47.709Z,99.90
2018-08-31T07:03:15.514Z,99.90
2018-08-31T07:05:43.175Z,99.90
2018-08-31T07:08:10.801Z,99.90
2018-08-31T07:10:38.487Z,99.90
2018-08-31T07:13:06.133Z,99.90
2018-08-31T07:15:33.815Z,99.90
2018-08-31T07:18:01.565Z,99.90
2018-08-31T07:20:29.241Z,99.90
2018-08-31T07:22:56.808Z,99.90
2018-08-31T07:25:24.368Z,99.90
2018-08-31T07:27:54.820Z,99.90
2018-08-31T07:30:22.384Z,99.90
2018-08-31T07:32:49.964Z,99.90
2018-08-31T07:35:17.463Z,99.90
2018-08-31T07:37:45.498Z,99.90
2018-08-31T07:40:14.537Z,99.90
2018-08-31T07:42:42.460Z,99.90
2018-08-31T07:45:10.075Z,99.90
2018-08-31T07:47:37.790Z,99.90
2018-08-31T07:50:05.938Z,99.90
2018-08-31T07:52:33.427Z,99.90
2018-08-31T07:55:01.050Z,99.90
2018-08-31T07:57:28.903Z,99.90
2018-08-31T07:59:58.393Z,99.90
2018-08-31T08:02:26.682Z,99.90
2018-08-31T08:04:54.565Z,99.90
2018-08-31T08:07:22.160Z,99.90
2018-08-31T08:09:49.705Z,99.90
2018-08-31T08:12:17.394Z,99.90
2018-08-31T08:14:44.876Z,99.90
2018-08-31T08:17:12.424Z,99.90
2018-08-31T08:19:40.102Z,99.90
2018-08-31T08:22:07.527Z,99.90
2018-08-31T08:24:35.084Z,99.90
2018-08-31T08:27:02.759Z,99.90
2018-08-31T08:29:30.523Z,99.90
2018-08-31T08:31:58.012Z,99.90
2018-08-31T08:34:25.653Z,99.90
2018-08-31T08:36:53.330Z,99.90
2018-08-31T08:39:21.735Z,99.90
2018-08-31T08:41:49.340Z,99.90
2018-08-31T08:44:16.956Z,99.60
2018-08-31T08:46:44.476Z,99.70
2018-08-31T08:49:11.917Z,99.70
2018-08-31T08:51:39.437Z,99.70
2018-08-31T08:54:07.059Z,99.70
2018-08-31T08:56:34.594Z,99.40
2018-08-31T08:59:02.137Z,99.30
2018-08-31T09:01:29.627Z,99.30
2018-08-31T09:03:57.091Z,99.30
2018-08-31T09:06:24.977Z,99.40
2018-08-31T09:08:55.256Z,99.30
2018-08-31T09:11:22.750Z,99.40
2018-08-31T09:13:50.285Z,99.40
2018-08-31T09:16:19.570Z,99.20
2018-08-31T09:18:47.517Z,98.70
2018-08-31T09:21:15.183Z,98.20
2018-08-31T09:23:44.269Z,97.20
2018-08-31T09:26:13.199Z,96.70
2018-08-31T09:28:40.845Z,96.50
2018-08-31T09:31:11.451Z,96.40
2018-08-31T09:33:38.935Z,96.30
2018-08-31T09:36:07.694Z,96.20
2018-08-31T09:38:35.198Z,96.10
2018-08-31T09:41:02.794Z,95.70
2018-08-31T09:43:30.478Z,95.50
2018-08-31T09:45:58.191Z,95.60
2018-08-31T09:48:25.906Z,95.70
2018-08-31T09:50:53.371Z,95.20
2018-08-31T09:53:20.993Z,95.60
2018-08-31T09:55:48.461Z,95.80
2018-08-31T09:58:16.115Z,95.80
2018-08-31T10:03:29.925Z,95.40
2018-08-31T10:06:00.375Z,95.70
2018-08-31T10:08:28.277Z,95.70
2018-08-31T10:10:56.141Z,95.90
2018-08-31T10:13:24.417Z,95.50
2018-08-31T10:15:51.933Z,95.10
2018-08-31T10:18:20.362Z,94.80
2018-08-31T10:20:47.955Z,95.50
2018-08-31T10:23:15.480Z,95.30
2018-08-31T10:25:43.026Z,94.90
2018-08-31T10:28:10.635Z,94.30
2018-08-31T10:30:38.218Z,94.20
2018-08-31T10:33:05.945Z,94.10
2018-08-31T10:35:33.576Z,93.80
2018-08-31T10:38:01.291Z,93.30
2018-08-31T10:40:28.967Z,92.80
2018-08-31T10:42:56.527Z,93.00
2018-08-31T10:45:23.977Z,92.40
2018-08-31T10:47:51.552Z,92.50
2018-08-31T10:50:19.063Z,92.50
2018-08-31T10:52:46.779Z,92.10
2018-08-31T10:55:14.460Z,92.40
2018-08-31T10:57:42.097Z,92.90
2018-08-31T11:00:09.644Z,93.00
2018-08-31T11:02:37.183Z,92.70
2018-08-31T11:05:04.764Z,92.10
2018-08-31T11:07:32.249Z,92.30
2018-08-31T11:09:59.799Z,92.70
2018-08-31T11:12:27.457Z,92.70
2018-08-31T11:14:54.919Z,92.50
2018-08-31T11:17:22.443Z,92.50
2018-08-31T11:19:51.818Z,92.60
2018-08-31T11:22:19.484Z,92.70
2018-08-31T11:24:47.407Z,93.60
2018-08-31T11:27:15.255Z,93.50
2018-08-31T11:29:42.930Z,92.30
2018-08-31T11:32:10.467Z,90.60
2018-08-31T11:34:38.084Z,87.80
2018-08-31T11:37:05.565Z,85.70
2018-08-31T11:39:33.068Z,83.60
2018-08-31T11:42:00.575Z,83.70
2018-08-31T11:44:28.047Z,85.20
2018-08-31T11:46:55.744Z,86.00
2018-08-31T11:49:23.270Z,87.60
2018-08-31T11:51:50.775Z,89.60
2018-08-31T11:54:18.335Z,90.50
2018-08-31T11:56:46.176Z,88.80
2018-08-31T11:59:13.581Z,85.20
2018-08-31T12:01:41.078Z,84.40
2018-08-31T12:04:08.669Z,79.90
2018-08-31T12:06:36.194Z,74.80
2018-08-31T12:09:04.701Z,73.60
2018-08-31T12:11:32.203Z,73.10
2018-08-31T12:13:59.753Z,72.80
2018-08-31T12:16:27.205Z,70.80
2018-08-31T12:18:54.664Z,70.90
2018-08-31T12:21:22.374Z,69.30
2018-08-31T12:23:51.298Z,69.30
2018-08-31T12:26:18.965Z,69.50
2018-08-31T12:28:46.511Z,72.30
2018-08-31T12:31:13.959Z,73.00
2018-08-31T12:33:41.428Z,73.80
2018-08-31T12:36:09.136Z,74.70
2018-08-31T12:38:36.711Z,74.20
2018-08-31T12:41:04.171Z,74.30
2018-08-31T12:43:31.620Z,74.40
2018-08-31T12:45:59.179Z,74.70
2018-08-31T12:48:26.865Z,74.80
2018-08-31T12:50:54.359Z,74.90
2018-08-31T12:53:21.895Z,75.00
2018-08-31T12:55:49.320Z,75.10
2018-08-31T12:58:16.881Z,74.20
2018-08-31T13:00:44.762Z,74.10
2018-08-31T13:03:12.371Z,73.40
2018-08-31T13:05:39.875Z,73.10
2018-08-31T13:08:07.379Z,72.80
2018-08-31T13:10:34.838Z,71.40
2018-08-31T13:13:02.309Z,72.60
2018-08-31T13:15:29.754Z,73.20
2018-08-31T13:17:57.363Z,75.50
2018-08-31T13:20:25.247Z,75.30
2018-08-31T13:22:52.889Z,75.40
2018-08-31T13:25:20.495Z,73.40
2018-08-31T13:27:48.005Z,73.00
2018-08-31T13:30:15.692Z,71.90
2018-08-31T13:32:43.222Z,70.80
2018-08-31T13:35:10.725Z,70.90
2018-08-31T13:37:38.493Z,73.70
2018-08-31T13:40:06.074Z,76.80
2018-08-31T13:42:33.616Z,79.20
2018-08-31T13:45:01.118Z,80.30
2018-08-31T13:47:29.134Z,82.30
2018-08-31T13:49:56.808Z,83.40
2018-08-31T13:52:24.270Z,83.30
2018-08-31T13:54:52.128Z,83.20
2018-08-31T13:57:19.705Z,81.60
2018-08-31T13:59:47.359Z,81.10
2018-08-31T14:02:16.370Z,79.40
2018-08-31T14:04:44.848Z,77.80
2018-08-31T14:07:12.387Z,77.70
2018-08-31T14:09:39.915Z,76.90
2018-08-31T14:12:07.541Z,77.00
2018-08-31T14:14:36.240Z,77.80
2018-08-31T14:17:04.334Z,77.40
2018-08-31T14:19:32.530Z,77.30
2018-08-31T14:22:00.472Z,77.80
2018-08-31T14:24:28.939Z,77.10
2018-08-31T14:26:57.496Z,77.50
2018-08-31T14:29:25.041Z,77.50
2018-08-31T14:31:52.580Z,78.40
2018-08-31T14:34:20.174Z,79.30
2018-08-31T14:36:48.004Z,79.30
2018-08-31T14:39:15.454Z,79.70
2018-08-31T14:41:42.943Z,80.30
2018-08-31T14:44:10.422Z,82.80
2018-08-31T14:46:38.415Z,83.40
2018-08-31T14:49:06.667Z,83.40
2018-08-31T14:51:34.330Z,83.70
2018-08-31T14:54:02.741Z,83.50
2018-08-31T14:56:30.574Z,84.60
2018-08-31T14:58:58.100Z,84.20
2018-08-31T15:01:25.851Z,84.40
2018-08-31T15:03:53.793Z,84.40
2018-08-31T15:06:21.373Z,84.70
2018-08-31T15:08:48.991Z,85.20
2018-08-31T15:11:16.794Z,86.50
2018-08-31T15:13:44.423Z,86.70
2018-08-31T15:16:12.072Z,86.70
2018-08-31T15:18:39.865Z,86.30
2018-08-31T15:21:07.581Z,86.10
2018-08-31T15:23:35.344Z,86.70
2018-08-31T15:26:02.964Z,87.00
2018-08-31T15:28:30.499Z,86.70
2018-08-31T15:30:58.062Z,87.10
2018-08-31T15:33:25.747Z,86.20
2018-08-31T15:35:53.215Z,87.00
2018-08-31T15:38:24.513Z,87.10
2018-08-31T15:40:52.076Z,86.90
2018-08-31T15:43:19.728Z,85.90
2018-08-31T15:45:47.422Z,86.00
2018-08-31T15:48:16.982Z,85.60
2018-08-31T15:50:51.417Z,85.60
2018-08-31T15:53:18.964Z,85.70
2018-08-31T15:55:46.420Z,85.40
2018-08-31T15:58:14.237Z,85.70
2018-08-31T16:00:41.809Z,86.20
2018-08-31T16:03:09.456Z,85.50
2018-08-31T16:05:37.085Z,86.10
2018-08-31T16:08:04.622Z,85.90
2018-08-31T16:10:32.106Z,86.00
2018-08-31T16:13:00.039Z,86.10
2018-08-31T16:15:27.597Z,86.10
2018-08-31T16:17:55.075Z,86.10
2018-08-31T16:20:22.602Z,85.20
2018-08-31T16:22:50.261Z,85.80
2018-08-31T16:25:17.855Z,86.60
2018-08-31T16:27:45.453Z,86.40
2018-08-31T16:30:13.043Z,86.80
2018-08-31T16:32:40.624Z,86.50
2018-08-31T16:35:12.370Z,86.00
2018-08-31T16:37:40.145Z,86.30
2018-08-31T16:40:08.666Z,86.60
2018-08-31T16:42:36.641Z,86.40
2018-08-31T16:45:04.377Z,86.50
2018-08-31T16:47:31.907Z,86.50
2018-08-31T16:50:01.577Z,87.10
2018-08-31T16:52:29.096Z,87.40
2018-08-31T16:54:56.674Z,87.50
2018-08-31T16:57:24.411Z,86.70
2018-08-31T16:59:51.966Z,87.00
2018-08-31T17:02:19.518Z,87.20
2018-08-31T17:04:48.593Z,86.40
2018-08-31T17:07:21.023Z,86.50
2018-08-31T17:10:01.133Z,86.60
2018-08-31T17:12:28.695Z,86.70
2018-08-31T17:14:58.236Z,87.00
2018-08-31T17:17:25.832Z,87.20
2018-08-31T17:19:54.448Z,88.00
2018-08-31T17:22:22.172Z,88.10
2018-08-31T17:24:49.655Z,88.10
2018-08-31T17:27:22.924Z,88.40
2018-08-31T17:30:03.169Z,88.70
2018-08-31T17:32:37.486Z,88.90
2018-08-31T17:35:10.756Z,89.70
2018-08-31T17:37:38.304Z,89.80
2018-08-31T17:40:05.863Z,90.00
2018-08-31T17:42:36.550Z,90.10
2018-08-31T17:45:04.505Z,90.00
2018-08-31T17:47:32.428Z,90.40
2018-08-31T17:50:01.114Z,90.20
2018-08-31T17:52:28.714Z,90.70
2018-08-31T17:54:57.471Z,90.70
2018-08-31T17:57:25.730Z,90.80
2018-08-31T17:59:53.552Z,90.90
2018-08-31T18:02:21.141Z,90.90
2018-08-31T18:04:49.793Z,90.90
2018-08-31T18:07:17.619Z,91.20
2018-08-31T18:09:45.378Z,91.40
2018-08-31T18:12:12.877Z,91.40
2018-08-31T18:14:40.400Z,91.40
2018-08-31T18:17:08.137Z,91.60
2018-08-31T18:19:35.940Z,91.70
2018-08-31T18:22:05.622Z,91.90
2018-08-31T18:24:33.231Z,91.90
2018-08-31T18:27:00.749Z,92.00
2018-08-31T18:29:28.391Z,92.10
2018-08-31T18:31:55.924Z,92.10
2018-08-31T18:34:23.753Z,92.20
2018-08-31T18:36:55.462Z,92.30
2018-08-31T18:39:24.303Z,92.40
2018-08-31T18:41:58.753Z,92.60
2018-08-31T18:44:26.505Z,92.70
2018-08-31T18:46:54.180Z,92.40
2018-08-31T18:49:21.683Z,92.60
2018-08-31T18:51:55.248Z,92.60
2018-08-31T18:54:30.821Z,92.70
2018-08-31T18:56:58.405Z,92.60
2018-08-31T18:59:26.080Z,92.60
2018-08-31T19:02:10.529Z,92.60
2018-08-31T19:04:38.504Z,92.80
2018-08-31T19:07:07.277Z,93.10
2018-08-31T19:09:35.726Z,93.00
2018-08-31T19:12:03.307Z,93.20
2018-08-31T19:14:30.960Z,93.30
2018-08-31T19:17:04.303Z,92.90
2018-08-31T19:19:47.513Z,93.10
2018-08-31T19:22:22.449Z,93.00
2018-08-31T19:24:52.344Z,93.40
2018-08-31T19:27:21.227Z,93.30
2018-08-31T19:32:27.533Z,93.60
2018-08-31T19:34:59.723Z,94.10
2018-08-31T19:37:30.166Z,93.80
2018-08-31T19:40:03.539Z,93.60
2018-08-31T19:42:38.518Z,93.70
2018-08-31T19:45:07.187Z,93.90
2018-08-31T19:47:35.939Z,94.10
2018-08-31T19:50:22.280Z,94.20
2018-08-31T19:52:54.545Z,94.00
2018-08-31T19:55:24.795Z,94.10
2018-08-31T19:57:55.383Z,94.00
2018-08-31T20:00:23.933Z,94.10
2018-08-31T20:03:20.824Z,94.20
2018-08-31T20:09:10.572Z,94.30
2018-08-31T20:11:39.683Z,94.60
2018-08-31T20:14:12.680Z,94.50
2018-08-31T20:16:48.782Z,94.30
2018-08-31T20:36:16.514Z,94.60
2018-08-31T20:38:46.179Z,94.60
2018-08-31T20:41:14.187Z,94.90
2018-08-31T20:46:33.084Z,94.70
2018-08-31T20:49:04.706Z,94.80
2018-08-31T20:54:29.414Z,94.90
2018-08-31T21:00:06.688Z,95.00
2018-08-31T21:02:34.274Z,95.00
2018-08-31T21:05:05.674Z,94.70
2018-08-31T21:07:35.045Z,95.20
2018-08-31T21:10:02.646Z,94.90
2018-08-31T21:12:30.306Z,95.10
2018-08-31T21:15:01.304Z,95.20
2018-08-31T21:17:29.069Z,95.00
2018-08-31T21:20:05.123Z,95.10
2018-08-31T21:22:32.763Z,95.30
2018-08-31T21:25:02.881Z,95.10
2018-08-31T21:27:31.880Z,95.10
2018-08-31T21:29:59.622Z,95.50
2018-08-31T21:32:27.251Z,95.40
2018-08-31T21:34:56.390Z,95.10
2018-08-31T21:37:26.976Z,95.40
2018-08-31T21:39:58.047Z,95.20
2018-08-31T21:42:27.055Z,95.10
2018-08-31T21:44:57.739Z,95.20
2018-08-31T21:47:28.729Z,95.30
2018-08-31T21:50:00.741Z,95.50
2018-08-31T21:52:28.441Z,95.50
2018-08-31T21:54:56.082Z,95.10
2018-08-31T21:57:30.764Z,95.40
2018-08-31T21:59:58.218Z,95.30
2018-08-31T22:02:30.461Z,95.50
2018-08-31T22:04:59.421Z,95.40
2018-08-31T22:07:27.729Z,95.30
2018-08-31T22:09:55.310Z,95.40
2018-08-31T22:12:23.091Z,95.30
2018-08-31T22:14:59.967Z,95.40
2018-08-31T22:17:31.455Z,95.30
2018-08-31T22:19:59.551Z,95.10
2018-08-31T22:22:27.211Z,95.40
2018-08-31T22:25:01.064Z,95.30
2018-08-31T22:27:28.773Z,95.30
2018-08-31T22:29:57.056Z,95.10
2018-08-31T22:32:25.600Z,95.20
2018-08-31T22:34:53.253Z,95.50
2018-08-31T22:37:22.541Z,95.40
2018-08-31T22:39:52.188Z,95.30
2018-08-31T22:42:21.097Z,95.50
2018-08-31T22:44:48.646Z,95.50
2018-08-31T22:47:16.297Z,95.40
2018-08-31T22:49:43.937Z,95.50
2018-08-31T22:52:15.226Z,95.60
2018-08-31T22:54:43.037Z,95.60
2018-08-31T22:57:10.649Z,95.60
2018-08-31T22:59:38.397Z,95.50
2018-08-31T23:02:07.172Z,95.70
2018-08-31T23:04:35.106Z,95.70
2018-08-31T23:07:03.968Z,95.70
2018-08-31T23:09:32.597Z,96.00
2018-08-31T23:12:00.123Z,95.90
2018-08-31T23:14:27.884Z,95.90
2018-08-31T23:16:55.587Z,96.00
2018-08-31T23:19:24.491Z,96.20
2018-08-31T23:21:53.148Z,95.90
2018-08-31T23:24:20.785Z,96.00
2018-08-31T23:26:49.408Z,96.00
2018-08-31T23:29:17.646Z,96.10
2018-08-31T23:31:45.160Z,96.10
2018-08-31T23:34:12.860Z,96.40
2018-08-31T23:36:40.409Z,96.30
2018-08-31T23:39:08.768Z,96.10
2018-08-31T23:41:37.591Z,96.20
2018-08-31T23:44:05.429Z,96.30
2018-08-31T23:46:33.056Z,96.40
2018-08-31T23:49:01.736Z,96.20
2018-08-31T23:51:30.005Z,96.50
2018-08-31T23:53:58.369Z,96.50
2018-08-31T23:56:26.170Z,96.70
2018-08-31T23:58:54.465Z,96.50
